createdAt,value
2023-06-25T00:03:15.247Z,44.33
2023-06-25T00:08:14.140Z,44.23
2023-06-25T00:13:12.973Z,43.83
2023-06-25T00:18:11.795Z,43.86
2023-06-25T00:23:12.080Z,43.97
2023-06-25T00:28:10.912Z,43.96
2023-06-25T00:33:10.279Z,44.41
2023-06-25T00:38:14.991Z,44.91
2023-06-25T00:43:16.689Z,44.63
2023-06-25T00:48:15.762Z,45.08
2023-06-25T00:53:16.395Z,45.00
2023-06-25T00:58:15.126Z,45.40
2023-06-25T01:03:25.553Z,50.17
2023-06-25T01:08:30.230Z,50.46
2023-06-25T01:13:29.144Z,51.16
2023-06-25T01:18:28.082Z,50.90
2023-06-25T01:23:30.916Z,50.76
2023-06-25T01:28:29.814Z,50.63
2023-06-25T01:33:28.624Z,50.78
2023-06-25T01:38:31.267Z,51.17
2023-06-25T01:43:31.924Z,51.67
2023-06-25T01:48:32.564Z,51.49
2023-06-25T01:53:32.858Z,51.16
2023-06-25T01:58:31.746Z,51.12
2023-06-25T02:03:30.746Z,51.27
2023-06-25T02:08:29.533Z,53.33
2023-06-25T02:13:29.829Z,53.86
2023-06-25T02:18:29.555Z,54.74
2023-06-25T02:23:28.509Z,54.80
2023-06-25T02:28:29.193Z,53.68
2023-06-25T02:33:28.016Z,53.17
2023-06-25T02:38:26.887Z,53.88
2023-06-25T02:43:25.791Z,53.57
2023-06-25T02:48:26.449Z,53.89
2023-06-25T02:53:25.285Z,54.40
2023-06-25T02:58:27.038Z,55.91
2023-06-25T03:03:27.307Z,55.14
2023-06-25T03:08:26.548Z,53.82
2023-06-25T03:13:25.775Z,53.98
2023-06-25T03:18:26.646Z,54.07
2023-06-25T03:23:26.637Z,54.50
2023-06-25T03:28:26.280Z,54.98
2023-06-25T03:33:27.384Z,54.42
2023-06-25T03:38:26.174Z,54.18
2023-06-25T03:43:28.880Z,54.38
2023-06-25T03:48:29.773Z,55.06
2023-06-25T03:53:29.098Z,54.27
2023-06-25T03:58:28.004Z,54.70
2023-06-25T04:03:26.960Z,54.98
2023-06-25T04:08:27.065Z,54.69
2023-06-25T04:13:26.107Z,54.38
2023-06-25T04:18:24.978Z,55.12
2023-06-25T04:23:23.722Z,54.90
2023-06-25T04:28:24.188Z,54.70
2023-06-25T04:33:23.156Z,55.27
2023-06-25T04:38:22.027Z,55.18
2023-06-25T04:43:21.675Z,56.21
2023-06-25T04:48:22.499Z,56.35
2023-06-25T04:53:21.395Z,56.90
2023-06-25T04:58:20.171Z,56.40
2023-06-25T05:03:18.983Z,56.76
2023-06-25T05:08:19.364Z,56.43
2023-06-25T05:13:18.266Z,56.30
2023-06-25T05:18:17.256Z,57.38
2023-06-25T05:23:16.069Z,56.72
2023-06-25T05:28:16.442Z,56.97
2023-06-25T05:33:15.280Z,58.29
2023-06-25T05:38:14.106Z,58.56
2023-06-25T05:43:13.255Z,58.65
2023-06-25T05:48:13.625Z,58.60
2023-06-25T05:53:12.432Z,58.40
2023-06-25T05:58:11.278Z,58.72
2023-06-25T06:03:10.196Z,57.56
2023-06-25T06:08:10.426Z,58.17
2023-06-25T06:13:12.464Z,58.23
2023-06-25T06:18:11.433Z,57.40
2023-06-25T06:23:12.964Z,58.91
2023-06-25T06:28:11.771Z,58.50
2023-06-25T06:33:12.363Z,58.06
2023-06-25T06:38:15.249Z,58.07
2023-06-25T06:43:14.097Z,57.92
2023-06-25T06:48:13.056Z,57.50
2023-06-25T06:53:13.305Z,56.58
2023-06-25T06:58:12.114Z,55.65
2023-06-25T07:03:10.883Z,55.14
2023-06-25T07:08:09.844Z,54.70
2023-06-25T07:13:11.324Z,53.58
2023-06-25T07:18:11.428Z,52.66
2023-06-25T07:23:10.515Z,52.00
2023-06-25T07:28:13.923Z,51.89
2023-06-25T07:33:12.753Z,51.21
2023-06-25T07:38:11.940Z,50.40
2023-06-25T07:43:13.184Z,49.63
2023-06-25T07:48:12.070Z,48.70
2023-06-25T07:53:10.818Z,48.01
2023-06-25T07:58:10.141Z,47.00
2023-06-25T08:03:17.847Z,46.74
2023-06-25T08:08:19.815Z,45.52
2023-06-25T08:13:18.464Z,45.75
2023-06-25T08:18:18.812Z,45.42
2023-06-25T08:23:20.833Z,45.51
2023-06-25T08:28:19.746Z,44.24
2023-06-25T08:33:24.934Z,43.57
2023-06-25T08:38:23.819Z,43.50
2023-06-25T08:43:22.803Z,42.98
2023-06-25T08:48:25.911Z,42.78
2023-06-25T08:53:28.432Z,42.57
2023-06-25T08:58:30.567Z,41.98
2023-06-25T09:03:30.799Z,41.84
2023-06-25T09:08:30.604Z,41.06
2023-06-25T09:13:30.741Z,40.66
2023-06-25T09:18:31.864Z,39.26
2023-06-25T09:23:33.439Z,38.54
2023-06-25T09:28:32.474Z,37.72
2023-06-25T09:33:35.553Z,37.84
2023-06-25T09:38:35.100Z,37.49
2023-06-25T09:43:34.562Z,36.97
2023-06-25T09:48:35.660Z,37.18
2023-06-25T09:53:39.125Z,36.49
2023-06-25T09:58:39.192Z,34.86
2023-06-25T10:03:40.260Z,34.74
2023-06-25T10:08:41.367Z,34.40
2023-06-25T10:13:42.064Z,34.15
2023-06-25T10:18:44.381Z,34.00
2023-06-25T10:23:43.171Z,34.36
2023-06-25T10:28:43.210Z,34.29
2023-06-25T10:33:44.118Z,34.35
2023-06-25T10:38:45.464Z,34.60
2023-06-25T10:43:46.043Z,34.48
2023-06-25T10:48:48.527Z,34.31
2023-06-25T10:53:47.480Z,33.53
2023-06-25T10:58:46.448Z,34.05
2023-06-25T11:03:45.552Z,34.51
2023-06-25T11:08:46.609Z,34.17
2023-06-25T11:13:45.338Z,32.69
2023-06-25T11:18:44.415Z,30.27
2023-06-25T11:23:46.413Z,30.17
2023-06-25T11:28:45.231Z,28.69
2023-06-25T11:33:43.997Z,28.05
2023-06-25T11:38:47.454Z,27.07
2023-06-25T11:43:46.210Z,27.04
2023-06-25T11:48:49.741Z,26.10
2023-06-25T11:53:49.870Z,27.07
2023-06-25T11:58:48.688Z,28.34
2023-06-25T12:03:47.556Z,26.65
2023-06-25T12:08:46.461Z,27.09
2023-06-25T12:13:46.741Z,26.06
2023-06-25T12:18:45.577Z,25.27
2023-06-25T12:23:44.387Z,24.33
2023-06-25T12:28:43.234Z,24.00
2023-06-25T12:33:43.500Z,24.13
2023-06-25T12:38:42.302Z,23.04
2023-06-25T12:43:41.180Z,22.24
2023-06-25T12:48:39.963Z,22.72
2023-06-25T12:53:40.225Z,22.08
2023-06-25T12:58:39.033Z,22.75
2023-06-25T13:03:40.615Z,24.12
2023-06-25T13:08:40.975Z,25.54
2023-06-25T13:13:42.914Z,27.85
2023-06-25T13:18:42.644Z,29.61
2023-06-25T13:23:42.818Z,32.82
2023-06-25T13:28:41.768Z,37.37
2023-06-25T13:33:40.536Z,40.22
2023-06-25T13:38:40.792Z,43.88
2023-06-25T13:43:40.873Z,47.24
2023-06-25T13:48:39.646Z,50.70
2023-06-25T13:53:38.595Z,58.16
2023-06-25T13:58:38.402Z,63.28
2023-06-25T14:03:38.832Z,66.22
2023-06-25T14:08:37.591Z,69.12
2023-06-25T14:13:37.070Z,70.13
2023-06-25T14:18:35.842Z,69.28
2023-06-25T14:23:35.954Z,69.51
2023-06-25T14:28:36.889Z,70.03
2023-06-25T14:33:36.503Z,70.98
2023-06-25T14:38:37.461Z,68.44
2023-06-25T14:43:36.626Z,67.55
2023-06-25T14:48:35.624Z,66.60
2023-06-25T14:53:37.370Z,65.99
2023-06-25T14:58:37.502Z,67.04
2023-06-25T15:03:36.427Z,69.80
2023-06-25T15:08:35.438Z,70.85
2023-06-25T15:13:34.287Z,72.23
2023-06-25T15:18:37.071Z,72.22
2023-06-25T15:23:35.997Z,72.07
2023-06-25T15:28:34.807Z,71.80
2023-06-25T15:33:35.015Z,70.74
2023-06-25T15:38:33.856Z,70.08
2023-06-25T15:43:32.808Z,70.10
2023-06-25T15:48:31.834Z,70.21
2023-06-25T15:53:32.044Z,71.21
2023-06-25T15:58:30.793Z,68.91
2023-06-25T16:03:30.542Z,70.25
2023-06-25T16:08:29.788Z,71.56
2023-06-25T16:13:30.135Z,71.73
2023-06-25T16:18:29.038Z,71.26
2023-06-25T16:23:27.936Z,71.31
2023-06-25T16:28:26.700Z,71.12
2023-06-25T16:33:26.885Z,71.21
2023-06-25T16:38:25.784Z,70.51
2023-06-25T16:43:24.587Z,69.96
2023-06-25T16:48:23.612Z,70.79
2023-06-25T16:53:23.890Z,70.44
2023-06-25T16:58:22.848Z,70.21
2023-06-25T17:03:22.016Z,68.81
2023-06-25T17:08:20.854Z,68.53
2023-06-25T17:13:21.147Z,65.83
2023-06-25T17:18:20.086Z,63.67
2023-06-25T17:23:20.776Z,63.13
2023-06-25T17:28:21.098Z,62.24
2023-06-25T17:33:19.920Z,61.46
2023-06-25T17:38:18.672Z,61.85
2023-06-25T17:43:21.140Z,60.83
2023-06-25T17:48:35.819Z,60.22
2023-06-25T17:53:36.648Z,61.17
2023-06-25T17:58:36.641Z,60.81
2023-06-25T18:03:38.153Z,60.94
2023-06-25T18:08:37.162Z,62.14
2023-06-25T18:13:35.928Z,62.26
2023-06-25T18:18:39.551Z,62.34
2023-06-25T18:23:38.636Z,62.04
2023-06-25T18:28:37.560Z,62.62
2023-06-25T18:33:37.802Z,64.88
2023-06-25T18:38:36.735Z,65.90
2023-06-25T18:43:35.570Z,67.67
2023-06-25T18:48:34.621Z,69.50
2023-06-25T18:53:34.868Z,68.51
2023-06-25T18:58:33.763Z,68.86
2023-06-25T19:03:32.758Z,69.16
2023-06-25T19:08:32.013Z,66.92
2023-06-25T19:13:32.237Z,65.60
2023-06-25T19:18:31.932Z,65.48
2023-06-25T19:23:30.894Z,65.52
2023-06-25T19:28:31.208Z,65.66
2023-06-25T19:33:30.100Z,65.37
2023-06-25T19:38:29.039Z,65.58
2023-06-25T19:43:29.082Z,66.76
2023-06-25T19:48:29.988Z,66.06
2023-06-25T19:53:30.236Z,66.28
2023-06-25T19:58:29.346Z,66.74
2023-06-25T20:03:32.271Z,66.38
2023-06-25T20:08:31.692Z,66.88
2023-06-25T20:13:33.380Z,66.92
2023-06-25T20:18:33.779Z,66.19
2023-06-25T20:23:33.554Z,66.66
2023-06-25T20:28:35.278Z,67.89
2023-06-25T20:33:35.447Z,68.52
2023-06-25T20:38:36.772Z,70.10
2023-06-25T20:43:36.710Z,70.76
2023-06-25T20:48:36.942Z,71.73
2023-06-25T20:53:36.744Z,71.15
2023-06-25T20:58:40.484Z,71.03
2023-06-25T21:03:40.640Z,70.99
2023-06-25T21:08:39.397Z,71.40
2023-06-25T21:13:38.208Z,71.06
2023-06-25T21:18:36.965Z,71.15
2023-06-25T21:23:37.080Z,70.74
2023-06-25T21:28:35.826Z,70.85
2023-06-25T21:33:34.650Z,70.97
2023-06-25T21:38:33.410Z,70.51
2023-06-25T21:43:34.236Z,71.18
2023-06-25T21:48:33.099Z,72.67
2023-06-25T21:53:35.595Z,73.03
2023-06-25T21:58:35.886Z,73.04
2023-06-25T22:03:36.377Z,72.07
2023-06-25T22:08:35.159Z,72.18
2023-06-25T22:13:35.550Z,72.82
2023-06-25T22:18:38.101Z,74.58
2023-06-25T22:23:36.964Z,74.79
2023-06-25T22:28:37.042Z,76.82
2023-06-25T22:33:35.796Z,78.54
2023-06-25T22:38:34.637Z,77.36
2023-06-25T22:43:33.453Z,77.48
2023-06-25T22:48:33.641Z,78.76
2023-06-25T22:53:32.543Z,78.58
2023-06-25T22:58:31.252Z,76.79
2023-06-25T23:03:30.127Z,78.87
2023-06-25T23:08:30.247Z,77.61
2023-06-25T23:13:28.981Z,76.72
2023-06-25T23:18:27.837Z,77.41
2023-06-25T23:23:26.764Z,76.58
2023-06-25T23:28:27.469Z,78.20
2023-06-25T23:33:30.349Z,80.20
2023-06-25T23:38:29.153Z,79.59
2023-06-25T23:43:29.322Z,79.15
2023-06-25T23:48:29.879Z,78.99
2023-06-25T23:53:29.888Z,79.99
2023-06-25T23:58:30.032Z,80.71
